Weather at Charles de Gaulle International Airport

Public forecast

Using degrees Celsius for public forecast. Weather courtesy of forecast.io.

Current aviation weather report (METAR) for Charles de Gaulle International Airport

Retrieved 2021/11/27 14:30 UTC (12 minutes ago):

LFPG 271430Z 02007KT 9999 FEW006 BKN010 FEW016TCU BKN033 03/02 Q0991 TEMPO 4000 -SHRASN BKN008 BKN015 SCT016TCU

Aviation forecast (TAF) for Charles de Gaulle International Airport

Retrieved 2021/11/27 12:00 UTC (3 hours ago):

TAF LFPG 271100Z 2712/2818 24012KT 9999 BKN011 TX05/2815Z TN01/2719Z BECMG 2712/2715 35010KT TEMPO 2712/2715 4000 SHRA BKN008 SCT012TCU PROB30 TEMPO 2712/2715 -SHRASN BECMG 2715/2718 SCT012 SCT030 PROB40 TEMPO 2718/2723 4000 -SHSNRA BKN008 SCT012TCU BKN030 PROB30 TEMPO 2718/2723 2000 -SHSN BKN006 SCT012CB BKN030 BECMG 2723/2724 33015G25KT TEMPO 2723/2806 4000 -SHRA BKN008 SCT012TCU TEMPO 2806/2811 4000 -SHSNRA BKN008 SCT012TCU BKN040 PROB40 TEMPO 2808/2811 2000 -SHSN BKN006 SCT012CB BKN040 BECMG 2815/2818 33012KT